Time;durP1;ratioP1;P1;durP2;ratioP2;P2;SDS_P1;SDS_P2;PMS_P1;PMS_P2;Temp;Humidity;BMP_temperature;BMP_pressure;BME280_temperature;BME280_humidity;BME280_pressure;Samples;Min_cycle;Max_cycle;Signal;HPM_P1;HPM_P2
2022/03/30 00:01:27;;;;;;;54.80;27.20;;;;;;;5.18;68.93;99334.91;5034311;28;20031;-74
2022/03/30 00:03:54;;;;;;;57.15;27.17;;;;;;;5.02;68.20;99319.00;5016187;28;20037;-75
2022/03/30 00:06:20;;;;;;;56.97;26.52;;;;;;;5.19;68.88;99339.28;4999847;28;20025;-76
2022/03/30 00:08:46;;;;;;;63.33;29.55;;;;;;;5.08;68.87;99322.78;5033610;28;20431;-76
2022/03/30 00:11:12;;;;;;;56.45;25.77;;;;;;;5.16;68.88;99328.94;5016146;28;20030;-75
2022/03/30 00:13:52;;;;;;;53.63;26.02;;;;;;;5.22;68.45;99341.97;5016121;28;20485;-76
2022/03/30 00:16:18;;;;;;;53.33;25.60;;;;;;;5.09;68.49;99330.00;5032716;28;20029;-75
2022/03/30 00:18:52;;;;;;;56.05;27.23;;;;;;;5.18;68.77;99335.66;5036650;28;20112;-76
2022/03/30 00:21:18;;;;;;;60.25;29.50;;;;;;;5.14;68.30;99339.88;5055322;28;20061;-76
2022/03/30 00:23:44;;;;;;;52.70;25.48;;;;;;;5.19;68.37;99339.28;5030089;28;20100;-75
2022/03/30 00:26:12;;;;;;;57.58;27.00;;;;;;;5.10;69.15;99330.78;5020349;28;20025;-75
2022/03/30 00:28:40;;;;;;;55.75;27.45;;;;;;;5.10;69.38;99333.59;5016507;28;20030;-76
2022/03/30 00:31:06;;;;;;;54.17;27.58;;;;;;;5.13;68.57;99341.91;5016440;28;20034;-76
2022/03/30 00:33:31;;;;;;;50.20;27.10;;;;;;;5.03;68.78;99337.50;5000143;28;20475;-76
2022/03/30 00:35:58;;;;;;;63.25;29.55;;;;;;;5.06;68.67;99341.44;4999998;28;20119;-75
2022/03/30 00:38:24;;;;;;;54.25;27.10;;;;;;;5.03;68.90;99329.03;5016185;28;20109;-74
2022/03/30 00:40:52;;;;;;;59.33;27.60;;;;;;;5.00;68.88;99320.72;5016150;28;20043;-76
2022/03/30 00:43:17;;;;;;;52.70;27.00;;;;;;;4.99;69.24;99333.25;5017725;28;20140;-76
2022/03/30 00:45:44;;;;;;;56.55;27.48;;;;;;;5.00;69.76;99332.78;5017301;28;20101;-76
2022/03/30 00:48:11;;;;;;;55.67;27.90;;;;;;;4.99;69.97;99324.78;5017402;28;20026;-76
2022/03/30 00:50:36;;;;;;;53.83;26.33;;;;;;;4.85;70.14;99308.44;5017385;28;20037;-76
2022/03/30 00:53:02;;;;;;;58.30;28.48;;;;;;;4.91;69.32;99318.66;5016343;28;20025;-75
2022/03/30 00:55:27;;;;;;;58.88;26.40;;;;;;;4.91;70.35;99320.69;4999580;28;20062;-75
2022/03/30 00:58:02;;;;;;;50.20;26.73;;;;;;;4.90;69.53;99330.41;4999580;28;20128;-77
2022/03/30 01:00:28;;;;;;;56.00;26.45;;;;;;;4.88;69.56;99325.25;4999182;28;20029;-75
2022/03/30 01:02:53;;;;;;;55.55;27.77;;;;;;;4.84;69.36;99318.94;4998383;28;20383;-76
2022/03/30 01:05:19;;;;;;;60.85;27.00;;;;;;;4.78;69.42;99315.16;4998151;28;20026;-76
2022/03/30 01:07:58;;;;;;;58.70;28.75;;;;;;;4.73;69.63;99307.31;4998152;28;20037;-76
2022/03/30 01:10:25;;;;;;;53.88;26.52;;;;;;;4.73;70.10;99313.75;5014586;28;20033;-74
2022/03/30 01:12:52;;;;;;;56.03;28.80;;;;;;;4.68;69.49;99305.09;4998486;28;20022;-76
2022/03/30 01:15:39;;;;;;;57.15;27.48;;;;;;;4.67;70.54;99314.81;4998891;28;20057;-74
2022/03/30 01:18:05;;;;;;;53.97;26.58;;;;;;;4.63;69.49;99314.16;5014246;28;20030;-74
2022/03/30 01:20:31;;;;;;;53.47;26.15;;;;;;;4.61;69.57;99316.66;5028854;28;20518;-74
2022/03/30 01:23:00;;;;;;;55.60;28.20;;;;;;;4.52;69.98;99300.47;5018748;28;20041;-76
2022/03/30 01:25:26;;;;;;;53.40;27.85;;;;;;;4.48;69.93;99296.22;5035066;28;20029;-74
2022/03/30 01:27:51;;;;;;;58.65;29.85;;;;;;;4.48;69.69;99301.88;5019044;28;20108;-75
2022/03/30 01:33:06;;;;;;;53.58;27.20;;;;;;;4.39;70.16;99294.13;5021548;28;20036;-75
2022/03/30 01:35:31;;;;;;;60.45;29.00;;;;;;;4.34;70.87;99297.56;5018529;28;20124;-72
2022/03/30 01:37:57;;;;;;;58.10;27.48;;;;;;;4.32;70.54;99300.84;5036344;28;20406;-76
2022/03/30 01:40:25;;;;;;;63.67;27.98;;;;;;;4.26;70.53;99297.03;5018213;28;20025;-74
2022/03/30 01:42:52;;;;;;;53.92;28.80;;;;;;;4.21;70.69;99300.47;5035819;28;20025;-75
2022/03/30 01:45:19;;;;;;;55.58;27.70;;;;;;;4.12;71.04;99285.53;5001686;28;20033;-75
2022/03/30 01:47:54;;;;;;;58.13;28.13;;;;;;;4.11;70.93;99298.81;5001691;28;20044;-74
2022/03/30 01:50:20;;;;;;;59.35;28.17;;;;;;;4.06;71.03;99290.97;5018313;28;20098;-74
2022/03/30 01:52:46;;;;;;;59.42;27.85;;;;;;;4.03;71.52;99288.28;5017309;28;20029;-75
2022/03/30 01:55:11;;;;;;;55.40;28.50;;;;;;;4.01;71.33;99283.09;5035535;28;20096;-75
2022/03/30 01:57:39;;;;;;;53.35;28.08;;;;;;;3.99;71.46;99284.81;5033950;28;20033;-76
2022/03/30 02:00:05;;;;;;;64.13;28.63;;;;;;;3.97;71.84;99288.09;5016509;28;20033;-75
2022/03/30 02:02:33;;;;;;;65.03;28.95;;;;;;;3.92;72.07;99268.97;5035346;28;20140;-74
2022/03/30 02:04:58;;;;;;;70.38;28.08;;;;;;;3.93;72.26;99279.00;5035717;28;20041;-74
2022/03/30 02:07:28;;;;;;;56.85;28.35;;;;;;;3.85;71.94;99272.03;5017894;28;20029;-74
2022/03/30 02:09:53;;;;;;;67.88;29.73;;;;;;;3.87;71.95;99267.53;5035123;28;20025;-76
2022/03/30 02:12:25;;;;;;;58.55;28.35;;;;;;;3.87;72.57;99264.72;5016940;28;20454;-75
2022/03/30 02:14:55;;;;;;;70.68;30.20;;;;;;;3.88;72.44;99266.28;5034202;28;20040;-74
2022/03/30 02:17:23;;;;;;;55.83;28.77;;;;;;;3.88;72.42;99271.13;5032916;28;20025;-75
2022/03/30 02:19:49;;;;;;;70.72;32.05;;;;;;;3.85;72.55;99261.56;5012840;28;20081;-75
2022/03/30 02:22:15;;;;;;;69.38;32.25;;;;;;;3.86;72.47;99268.78;4997132;28;20030;-75
2022/03/30 02:24:41;;;;;;;66.80;32.10;;;;;;;3.79;72.33;99259.81;4997398;28;20387;-75
2022/03/30 02:27:08;;;;;;;65.68;33.17;;;;;;;3.74;72.43;99257.59;5013202;28;20029;-75
2022/03/30 02:29:40;;;;;;;66.35;31.80;;;;;;;3.76;72.38;99267.13;5014613;28;20026;-75
2022/03/30 02:32:06;;;;;;;66.55;32.35;;;;;;;3.73;72.74;99256.78;5014975;28;20133;-75
2022/03/30 02:34:36;;;;;;;69.85;32.30;;;;;;;3.68;72.92;99248.94;4998046;28;20467;-75
2022/03/30 02:37:03;;;;;;;66.82;32.25;;;;;;;3.64;72.69;99250.31;5016089;28;20072;-75
2022/03/30 02:39:45;;;;;;;67.95;31.95;;;;;;;3.68;73.11;99256.59;5000213;28;20105;-76
2022/03/30 02:42:16;;;;;;;66.43;31.95;;;;;;;3.67;73.19;99255.03;5019553;28;20026;-75
2022/03/30 02:44:44;;;;;;;64.25;31.52;;;;;;;3.63;72.87;99243.09;5001500;28;20026;-75
2022/03/30 02:47:09;;;;;;;62.55;30.13;;;;;;;3.62;73.20;99252.78;5004810;28;20033;-75
2022/03/30 02:49:36;;;;;;;60.15;28.92;;;;;;;3.56;73.02;99240.53;4993846;28;20042;-75
2022/03/30 02:52:03;;;;;;;67.85;30.50;;;;;;;3.57;72.92;99259.00;5010350;28;20029;-75
2022/03/30 02:54:54;;;;;;;97.85;35.00;;;;;;;3.52;73.00;99256.78;5025915;28;20474;-76
2022/03/30 02:57:25;;;;;;;66.65;31.58;;;;;;;3.43;72.73;99254.69;4999312;28;20479;-75
2022/03/30 02:59:53;;;;;;;68.00;32.90;;;;;;;3.36;73.09;99252.91;5017732;28;20471;-75
2022/03/30 03:02:25;;;;;;;65.75;31.08;;;;;;;3.32;73.20;99240.97;5028641;28;20036;-76
2022/03/30 03:04:55;;;;;;;64.68;28.92;;;;;;;3.35;72.91;99256.97;5010857;28;20119;-76
2022/03/30 03:07:20;;;;;;;61.53;30.48;;;;;;;3.32;72.79;99255.06;5020324;28;20390;-76
2022/03/30 03:09:45;;;;;;;61.97;31.20;;;;;;;3.24;73.36;99250.13;5013627;28;20025;-76
2022/03/30 03:12:13;;;;;;;59.67;30.08;;;;;;;3.23;73.18;99254.97;4997280;28;20022;-75
2022/03/30 03:14:41;;;;;;;65.53;30.90;;;;;;;3.25;73.43;99260.94;5013763;28;20033;-76
2022/03/30 03:17:09;;;;;;;84.68;31.88;;;;;;;3.12;73.46;99242.50;5014447;28;20368;-76
2022/03/30 03:19:35;;;;;;;85.43;33.42;;;;;;;2.98;73.39;99222.09;5012547;28;20050;-75
2022/03/30 03:22:02;;;;;;;68.10;30.10;;;;;;;3.17;73.46;99258.81;5015768;28;20053;-75
2022/03/30 03:24:36;;;;;;;66.75;31.00;;;;;;;3.15;73.41;99252.88;5034311;28;20462;-75
2022/03/30 03:27:05;;;;;;;78.30;32.30;;;;;;;2.99;73.63;99239.75;5016228;28;20121;-76
2022/03/30 03:29:30;;;;;;;68.07;31.88;;;;;;;3.09;73.47;99247.03;5034164;28;20104;-75
2022/03/30 03:31:56;;;;;;;81.20;35.17;;;;;;;3.03;73.39;99246.03;4999789;28;20041;-75
2022/03/30 03:34:23;;;;;;;86.57;38.28;;;;;;;2.98;73.96;99229.72;5049123;28;20474;-74
2022/03/30 03:36:51;;;;;;;86.28;39.75;;;;;;;2.97;73.88;99228.16;4999706;28;20088;-74
2022/03/30 03:39:17;;;;;;;77.95;37.55;;;;;;;2.93;73.87;99230.31;4996216;28;20078;-75
2022/03/30 03:41:45;;;;;;;80.57;35.80;;;;;;;2.94;74.08;99237.50;5014055;28;20546;-75
2022/03/30 03:44:13;;;;;;;74.47;34.78;;;;;;;2.93;73.86;99239.53;4980394;28;20068;-75
2022/03/30 03:46:41;;;;;;;89.43;44.38;;;;;;;2.97;74.34;99231.75;5012490;28;20424;-75
2022/03/30 03:49:08;;;;;;;80.88;36.85;;;;;;;2.97;73.99;99239.41;5012681;28;20026;-75
2022/03/30 03:51:35;;;;;;;80.60;35.75;;;;;;;2.98;74.50;99246.59;5028793;28;20060;-75
2022/03/30 03:54:01;;;;;;;83.95;37.33;;;;;;;2.93;73.97;99242.34;5028099;28;20022;-74
2022/03/30 03:56:27;;;;;;;77.07;34.42;;;;;;;2.94;74.48;99240.31;4999612;28;20478;-74
2022/03/30 03:58:53;;;;;;;73.60;33.05;;;;;;;2.93;74.36;99239.53;4999929;28;20029;-75
2022/03/30 04:01:20;;;;;;;91.97;38.75;;;;;;;2.92;74.44;99243.56;5034474;28;20140;-75
2022/03/30 04:03:47;;;;;;;81.32;37.88;;;;;;;2.86;74.43;99225.69;5051774;28;20021;-76
2022/03/30 04:06:16;;;;;;;77.00;36.00;;;;;;;2.86;74.58;99227.75;5017940;28;20025;-76
2022/03/30 04:08:42;;;;;;;82.60;34.33;;;;;;;2.86;74.58;99236.94;5016437;28;20017;-76
2022/03/30 04:11:09;;;;;;;75.28;34.60;;;;;;;2.82;74.44;99224.25;5015797;28;20092;-75
2022/03/30 04:13:37;;;;;;;67.57;33.75;;;;;;;2.82;74.63;99229.88;5015692;28;20018;-75
2022/03/30 04:16:10;;;;;;;85.50;33.35;;;;;;;2.82;74.83;99224.25;4999052;28;20025;-75
2022/03/30 04:18:37;;;;;;;81.60;30.90;;;;;;;2.86;74.85;99236.94;4999494;28;20060;-75
2022/03/30 04:21:03;;;;;;;66.35;31.60;;;;;;;2.78;74.25;99224.38;5015924;28;20061;-75
2022/03/30 04:23:32;;;;;;;69.60;30.42;;;;;;;2.85;74.92;99246.66;4995423;28;20092;-75
2022/03/30 04:25:57;;;;;;;66.07;31.13;;;;;;;2.86;74.88;99244.63;5013774;28;20049;-76
2022/03/30 04:28:23;;;;;;;62.03;31.00;;;;;;;2.82;74.30;99246.75;5012683;28;20088;-75
2022/03/30 04:30:49;;;;;;;82.30;31.52;;;;;;;2.77;74.47;99248.09;5022000;28;20030;-75
2022/03/30 04:33:16;;;;;;;75.22;30.83;;;;;;;2.74;74.36;99246.19;4993818;28;20117;-76
2022/03/30 04:35:43;;;;;;;65.85;31.25;;;;;;;2.72;74.41;99245.06;4992667;28;20069;-77
2022/03/30 04:38:09;;;;;;;71.45;31.15;;;;;;;2.73;74.84;99246.66;4993876;28;20058;-74
2022/03/30 04:40:36;;;;;;;71.30;32.92;;;;;;;2.71;75.34;99244.31;4992846;28;20035;-75
2022/03/30 04:43:04;;;;;;;84.00;33.50;;;;;;;2.70;74.94;99241.94;5013035;28;20018;-75
2022/03/30 04:45:33;;;;;;;66.65;32.38;;;;;;;2.84;75.60;99249.91;5016682;28;20049;-76
2022/03/30 04:48:00;;;;;;;78.03;32.80;;;;;;;2.82;75.65;99247.53;5012285;28;20038;-77
2022/03/30 04:50:27;;;;;;;69.47;31.42;;;;;;;2.92;75.52;99249.19;5012507;28;20034;-75
2022/03/30 04:52:56;;;;;;;68.40;31.90;;;;;;;2.97;75.36;99253.47;5014796;28;20049;-75
2022/03/30 04:55:22;;;;;;;69.57;30.63;;;;;;;2.99;74.95;99231.31;5013485;28;20037;-76
2022/03/30 04:57:47;;;;;;;71.25;31.85;;;;;;;3.08;74.72;99251.06;5012490;28;20037;-76
2022/03/30 05:00:18;;;;;;;71.65;34.08;;;;;;;3.07;75.14;99229.81;4998351;28;20479;-76
2022/03/30 05:02:52;;;;;;;78.32;35.60;;;;;;;3.16;74.94;99229.13;4998007;28;20141;-74
2022/03/30 05:05:18;;;;;;;87.97;33.78;;;;;;;3.35;74.40;99245.72;5015392;28;20478;-75
2022/03/30 05:07:45;;;;;;;84.82;37.17;;;;;;;3.33;74.37;99224.88;5016901;28;20115;-77
2022/03/30 05:10:13;;;;;;;84.32;34.33;;;;;;;3.58;74.89;99244.47;5017323;28;20133;-76
2022/03/30 05:12:39;;;;;;;75.80;34.55;;;;;;;3.76;74.32;99257.91;5000488;28;20057;-77
2022/03/30 05:15:05;;;;;;;76.57;33.90;;;;;;;3.90;74.06;99257.38;4984380;28;20062;-78
2022/03/30 05:17:32;;;;;;;82.57;34.65;;;;;;;4.05;74.38;99249.16;5000332;28;20036;-77
2022/03/30 05:19:59;;;;;;;88.07;33.42;;;;;;;4.22;73.18;99244.88;4985129;28;20038;-77
2022/03/30 05:22:25;;;;;;;88.90;34.90;;;;;;;4.36;72.85;99247.13;5002379;28;20113;-77
2022/03/30 05:24:51;;;;;;;99.03;35.28;;;;;;;4.55;72.33;99248.00;5002260;28;20466;-78
2022/03/30 05:27:17;;;;;;;86.35;34.00;;;;;;;4.73;72.42;99245.25;5002243;28;20128;-78
2022/03/30 05:29:42;;;;;;;90.05;33.55;;;;;;;4.92;72.61;99255.34;5036840;28;20075;-78
2022/03/30 05:32:09;;;;;;;69.65;32.40;;;;;;;5.10;71.71;99241.25;5019024;28;20030;-78
2022/03/30 05:34:35;;;;;;;96.03;35.70;;;;;;;5.28;71.80;99253.84;5019391;28;20549;-80
2022/03/30 05:37:09;;;;;;;84.57;34.90;;;;;;;5.44;70.71;99250.69;5019095;28;20099;-77
2022/03/30 05:39:39;;;;;;;92.65;35.00;;;;;;;5.49;70.16;99230.31;5036234;28;20036;-78
2022/03/30 05:42:08;;;;;;;81.55;35.03;;;;;;;5.79;69.99;99248.34;5036388;28;20100;-78
2022/03/30 05:44:45;;;;;;;83.63;35.10;;;;;;;5.85;69.26;99224.63;5001874;28;20129;-78
2022/03/30 05:47:14;;;;;;;75.05;35.03;;;;;;;6.21;68.80;99257.72;5037284;28;20100;-75
2022/03/30 05:49:39;;;;;;;81.05;35.58;;;;;;;6.44;68.61;99244.91;5035325;28;20029;-75
2022/03/30 05:52:07;;;;;;;84.93;33.33;;;;;;;6.71;67.47;99250.44;5018588;28;20017;-77
2022/03/30 05:54:33;;;;;;;92.50;37.53;;;;;;;6.82;67.50;99252.75;5001722;28;20030;-75
2022/03/30 05:57:02;;;;;;;79.65;35.03;;;;;;;7.00;67.22;99249.06;4985404;28;20025;-75
2022/03/30 05:59:35;;;;;;;74.38;34.50;;;;;;;7.17;66.71;99248.16;5018497;28;20029;-75
2022/03/30 06:02:07;;;;;;;75.93;35.30;;;;;;;7.34;66.21;99243.66;5018157;28;20022;-76
2022/03/30 06:04:34;;;;;;;69.40;32.75;;;;;;;7.46;65.16;99250.31;5019580;28;20463;-76
2022/03/30 06:07:00;;;;;;;72.15;35.03;;;;;;;7.48;64.66;99242.13;5018375;28;20497;-75
2022/03/30 06:09:27;;;;;;;67.00;33.28;;;;;;;7.73;64.52;99254.97;5018141;28;20334;-75
2022/03/30 06:11:54;;;;;;;66.82;31.65;;;;;;;7.85;63.96;99238.97;5035614;28;20029;-76
2022/03/30 06:14:21;;;;;;;72.28;33.20;;;;;;;8.04;64.60;99246.78;5018334;28;20029;-76
2022/03/30 06:16:47;;;;;;;73.65;33.38;;;;;;;8.33;63.83;99242.44;4984757;28;20033;-75
2022/03/30 06:19:21;;;;;;;67.30;31.77;;;;;;;8.64;63.02;99246.31;5000910;28;20036;-77
2022/03/30 06:22:12;;;;;;;69.75;31.98;;;;;;;9.00;62.14;99241.44;5034680;28;20372;-75
2022/03/30 06:24:40;;;;;;;69.25;32.88;;;;;;;9.41;61.45;99239.41;5017328;28;20025;-74
2022/03/30 06:27:07;;;;;;;71.45;31.75;;;;;;;9.74;60.82;99228.44;5017053;28;20064;-76
2022/03/30 06:29:44;;;;;;;63.47;31.90;;;;;;;10.26;59.25;99239.88;5015676;28;20441;-75
2022/03/30 06:32:15;;;;;;;62.13;33.72;;;;;;;10.58;58.32;99230.06;5033893;28;20466;-76
2022/03/30 06:34:43;;;;;;;62.17;31.52;;;;;;;11.21;56.80;99232.81;5034985;28;20037;-76
2022/03/30 06:37:08;;;;;;;66.95;33.05;;;;;;;11.92;55.26;99243.00;5035373;28;20029;-75
2022/03/30 06:39:39;;;;;;;60.65;31.48;;;;;;;12.32;52.19;99215.31;5034938;28;20031;-75
2022/03/30 06:42:09;;;;;;;71.82;35.03;;;;;;;12.74;51.77;99231.41;5034483;28;20025;-75
2022/03/30 06:44:38;;;;;;;66.50;33.78;;;;;;;12.84;51.76;99210.59;5033926;28;20025;-75
2022/03/30 06:47:05;;;;;;;62.72;32.90;;;;;;;13.44;50.68;99233.09;5033589;28;20100;-74
2022/03/30 06:49:37;;;;;;;59.42;32.58;;;;;;;14.19;48.36;99225.97;5033650;28;20481;-75
2022/03/30 06:52:16;;;;;;;68.10;32.45;;;;;;;15.18;46.69;99223.59;5015913;28;20044;-74
2022/03/30 06:54:42;;;;;;;62.22;33.50;;;;;;;16.22;44.31;99219.97;5000670;28;20108;-75
2022/03/30 06:57:09;;;;;;;65.30;33.58;;;;;;;16.86;42.37;99208.50;5034828;28;20339;-77
2022/03/30 06:59:37;;;;;;;64.45;33.55;;;;;;;17.01;40.88;99216.59;5050081;28;20064;-76
2022/03/30 07:02:03;;;;;;;112.53;37.92;;;;;;;17.12;39.82;99211.41;5016624;28;20033;-76
2022/03/30 07:04:31;;;;;;;488.00;100.25;;;;;;;17.20;40.37;99218.06;5034817;28;20532;-75
2022/03/30 07:12:45;;;;;;;335.77;76.65;;;;;;;18.44;36.28;99180.31;5034844;28;20092;-75
2022/03/30 07:15:11;;;;;;;60.97;31.75;;;;;;;19.88;34.25;99211.66;5016299;28;20376;-75
2022/03/30 07:17:48;;;;;;;467.60;97.05;;;;;;;21.20;31.41;99213.75;5032730;28;20068;-75
2022/03/30 07:20:22;;;;;;;167.82;45.25;;;;;;;22.48;29.42;99203.13;5032319;28;20033;-75
2022/03/30 07:22:50;;;;;;;70.70;33.22;;;;;;;23.10;28.68;99211.59;5032633;28;20025;-75
2022/03/30 07:25:17;;;;;;;58.78;31.60;;;;;;;23.37;27.59;99205.94;5032743;28;20068;-75
2022/03/30 07:27:46;;;;;;;54.88;31.27;;;;;;;23.93;27.12;99212.94;5015852;28;20073;-76
2022/03/30 07:30:14;;;;;;;49.13;30.67;;;;;;;23.83;26.95;99205.50;4999985;28;20124;-76
2022/03/30 07:32:42;;;;;;;48.53;30.63;;;;;;;23.47;27.90;99206.06;5016131;28;20470;-76
2022/03/30 07:35:18;;;;;;;50.53;28.27;;;;;;;23.30;27.62;99206.78;5016247;28;20079;-78
2022/03/30 07:37:46;;;;;;;44.08;26.48;;;;;;;23.04;28.28;99210.31;5016004;28;20033;-77
2022/03/30 07:40:15;;;;;;;43.25;26.83;;;;;;;22.73;28.44;99210.53;5015934;28;20030;-77
2022/03/30 07:42:46;;;;;;;41.30;26.73;;;;;;;22.27;27.32;99218.69;5033678;28;20462;-76
2022/03/30 07:45:12;;;;;;;45.85;25.33;;;;;;;22.23;28.31;99211.75;5016016;28;20108;-76
2022/03/30 07:47:58;;;;;;;58.05;27.23;;;;;;;22.15;27.27;99216.84;5033630;28;20431;-77
2022/03/30 07:50:25;;;;;;;47.75;26.92;;;;;;;21.83;28.07;99217.50;5028261;28;20533;-76
2022/03/30 07:52:51;;;;;;;40.10;25.45;;;;;;;21.98;27.92;99199.28;4996010;28;20083;-74
2022/03/30 07:55:17;;;;;;;40.13;24.85;;;;;;;22.78;27.39;99205.84;5028646;28;20324;-74
2022/03/30 07:57:43;;;;;;;54.75;26.15;;;;;;;23.46;26.25;99199.50;5016536;28;20428;-74
2022/03/30 08:00:16;;;;;;;40.83;24.98;;;;;;;23.75;25.32;99202.66;5034080;28;20101;-73
2022/03/30 08:02:56;;;;;;;41.45;25.50;;;;;;;23.70;24.17;99206.59;5019673;28;20124;-74
2022/03/30 08:05:23;;;;;;;50.07;27.87;;;;;;;23.26;25.18;99191.91;5033084;28;20045;-74
2022/03/30 08:07:49;;;;;;;49.20;26.77;;;;;;;22.77;25.95;99205.09;5033606;28;20044;-74
2022/03/30 08:10:15;;;;;;;48.50;27.08;;;;;;;22.09;27.01;99201.78;5015661;28;20437;-77
2022/03/30 08:12:41;;;;;;;39.53;25.92;;;;;;;21.63;27.12;99195.31;5033949;28;20055;-75
2022/03/30 08:15:08;;;;;;;49.58;27.00;;;;;;;21.59;27.18;99213.13;5000653;28;20118;-74
2022/03/30 08:17:38;;;;;;;42.00;26.23;;;;;;;21.80;27.25;99198.38;5035186;28;20033;-74
2022/03/30 08:20:04;;;;;;;48.80;26.42;;;;;;;21.91;26.13;99203.72;5020591;28;20037;-74
2022/03/30 08:22:30;;;;;;;41.45;25.40;;;;;;;22.19;26.54;99191.09;5020317;28;20038;-74
2022/03/30 08:25:00;;;;;;;39.58;25.88;;;;;;;22.36;26.37;99191.19;5042312;28;20045;-74
2022/03/30 08:27:31;;;;;;;44.38;25.00;;;;;;;22.44;26.53;99179.53;5031608;28;20029;-74
2022/03/30 08:29:57;;;;;;;40.58;24.90;;;;;;;22.83;26.81;99204.84;5049021;28;20091;-75
2022/03/30 08:32:24;;;;;;;46.08;26.20;;;;;;;23.12;25.85;99199.38;5029339;28;20108;-73
2022/03/30 08:34:53;;;;;;;44.70;26.27;;;;;;;23.34;26.01;99189.69;5037962;28;20028;-74
2022/03/30 08:37:19;;;;;;;45.35;26.48;;;;;;;23.49;25.24;99197.50;5003058;28;20034;-74
2022/03/30 08:39:45;;;;;;;49.80;27.15;;;;;;;23.52;25.34;99173.06;5019141;28;20072;-73
2022/03/30 08:42:13;;;;;;;51.55;29.23;;;;;;;23.35;24.81;99184.66;5019711;28;20033;-74
2022/03/30 08:44:53;;;;;;;45.50;25.92;;;;;;;23.14;24.46;99185.78;5020729;28;20060;-74
2022/03/30 08:47:19;;;;;;;47.83;27.13;;;;;;;22.98;25.07;99181.50;5003561;28;20032;-74
2022/03/30 08:49:47;;;;;;;47.05;27.52;;;;;;;22.61;25.35;99150.56;5034929;28;20046;-74
2022/03/30 08:52:14;;;;;;;47.00;27.27;;;;;;;22.73;25.06;99180.72;5037478;28;20041;-73
2022/03/30 08:54:44;;;;;;;51.22;27.67;;;;;;;22.71;25.13;99171.81;5003202;28;20033;-74
2022/03/30 08:57:13;;;;;;;44.85;27.23;;;;;;;22.74;26.13;99170.66;5003749;28;20480;-74
2022/03/30 08:59:38;;;;;;;48.60;28.38;;;;;;;22.60;24.89;99175.16;5038200;28;20021;-74
2022/03/30 09:02:08;;;;;;;45.03;28.00;;;;;;;22.22;25.80;99179.06;5019546;28;20037;-74
2022/03/30 09:04:33;;;;;;;48.67;28.92;;;;;;;21.83;26.07;99171.88;5003509;28;20037;-72
2022/03/30 09:07:00;;;;;;;45.35;27.65;;;;;;;21.40;26.54;99175.88;5037055;28;20020;-74
2022/03/30 09:09:34;;;;;;;51.20;26.42;;;;;;;21.02;26.95;99175.09;5019158;28;20038;-73
2022/03/30 09:12:06;;;;;;;44.35;28.13;;;;;;;20.64;27.20;99186.66;5038388;28;20377;-73
2022/03/30 09:14:34;;;;;;;46.38;28.33;;;;;;;20.42;27.12;99187.41;5035956;28;20025;-74
2022/03/30 09:17:06;;;;;;;51.67;26.10;;;;;;;20.33;27.71;99176.38;5002676;28;20036;-73
2022/03/30 09:19:38;;;;;;;41.42;25.67;;;;;;;20.22;28.15;99180.38;4986310;28;20482;-73
2022/03/30 09:22:05;;;;;;;45.10;26.92;;;;;;;20.14;28.13;99170.91;5035910;28;20057;-73
2022/03/30 09:24:34;;;;;;;44.28;25.85;;;;;;;20.20;28.83;99168.59;5018621;28;20036;-73
2022/03/30 09:27:02;;;;;;;42.40;23.98;;;;;;;20.10;27.66;99167.63;5018969;28;20049;-74
2022/03/30 09:29:33;;;;;;;49.00;26.23;;;;;;;19.85;28.63;99176.00;5002314;28;20032;-74
2022/03/30 09:32:03;;;;;;;45.70;25.90;;;;;;;19.53;28.14;99161.22;5036247;28;20041;-74
2022/03/30 09:34:34;;;;;;;44.15;26.30;;;;;;;19.11;28.84;99161.28;5035974;28;20434;-74
2022/03/30 09:36:59;;;;;;;42.55;24.85;;;;;;;18.96;29.17;99159.06;5036062;28;20032;-75
2022/03/30 09:39:37;;;;;;;44.30;24.60;;;;;;;18.80;29.24;99163.16;5035992;28;20319;-75
2022/03/30 09:42:05;;;;;;;50.08;24.80;;;;;;;18.68;30.04;99156.16;5018054;28;20033;-75
2022/03/30 09:44:48;;;;;;;39.75;24.02;;;;;;;18.75;29.58;99164.09;5036243;28;20431;-74
2022/03/30 09:47:14;;;;;;;41.53;22.88;;;;;;;18.80;30.16;99154.50;5002344;28;20167;-74
2022/03/30 09:49:42;;;;;;;44.30;23.70;;;;;;;18.87;30.42;99153.81;5001889;28;20120;-74
2022/03/30 09:52:26;;;;;;;44.95;24.45;;;;;;;19.10;29.74;99147.41;5018162;28;20025;-74
2022/03/30 09:54:53;;;;;;;48.38;24.90;;;;;;;19.28;30.10;99134.84;5035365;28;20109;-73
2022/03/30 09:57:21;;;;;;;41.03;24.92;;;;;;;19.33;31.02;99134.69;5035814;28;20052;-74
2022/03/30 10:00:02;;;;;;;45.58;24.90;;;;;;;19.25;30.11;99135.97;5035175;28;20382;-73
2022/03/30 10:02:58;;;;;;;;;;;;;;;19.06;29.22;99142.03;5036281;28;20029;-74
2022/03/30 10:05:25;;;;;;;43.75;23.88;;;;;;;18.75;29.89;99135.25;5018446;28;20470;-73
2022/03/30 10:07:52;;;;;;;41.33;24.33;;;;;;;18.63;30.02;99134.00;5035238;28;20036;-73
2022/03/30 10:10:19;;;;;;;49.00;24.45;;;;;;;18.65;30.43;99134.19;5035526;28;20025;-73
2022/03/30 10:12:53;;;;;;;48.53;24.58;;;;;;;18.64;29.63;99131.88;5000663;28;20026;-73
2022/03/30 10:15:20;;;;;;;49.45;25.60;;;;;;;18.64;30.05;99132.66;5017962;28;20049;-75
2022/03/30 10:17:46;;;;;;;47.00;24.67;;;;;;;18.55;30.01;99127.38;5050554;28;20030;-76
2022/03/30 10:20:13;;;;;;;43.60;24.55;;;;;;;18.63;30.76;99122.47;5035180;28;20108;-75
2022/03/30 10:23:12;;;;;;;44.80;25.20;;;;;;;18.67;30.57;99117.09;5035308;28;20025;-74
2022/03/30 10:26:11;;;;;;;42.92;22.83;;;;;;;18.66;30.27;99118.44;5035382;28;20485;-77
2022/03/30 10:28:54;;;;;;;40.72;23.67;;;;;;;18.59;31.34;99113.41;5035718;28;20111;-75
2022/03/30 10:31:35;;;;;;;41.75;23.52;;;;;;;18.64;31.02;99100.94;5017371;28;20025;-75
2022/03/30 10:34:25;;;;;;;38.40;23.80;;;;;;;18.56;31.61;99097.19;5050374;28;20059;-73
2022/03/30 10:37:16;;;;;;;39.90;21.95;;;;;;;18.50;30.74;99097.31;5017435;28;20029;-74
2022/03/30 10:40:07;;;;;;;49.38;25.25;;;;;;;18.31;30.96;99093.09;5034999;28;20021;-73
2022/03/30 10:42:58;;;;;;;49.30;24.20;;;;;;;18.41;30.96;99088.38;5037964;28;20052;-74
2022/03/30 10:45:40;;;;;;;44.47;22.92;;;;;;;18.46;30.61;99079.59;5035364;28;20025;-74
2022/03/30 10:48:37;;;;;;;39.58;22.55;;;;;;;18.51;30.40;99075.78;5034448;28;20478;-74
2022/03/30 10:51:08;;;;;;;38.85;21.90;;;;;;;18.58;30.19;99080.13;5034787;28;20490;-75
2022/03/30 10:53:38;;;;;;;38.80;22.80;;;;;;;18.52;29.78;99070.78;5035377;28;20037;-74
2022/03/30 10:56:06;;;;;;;39.92;23.02;;;;;;;18.47;30.08;99075.38;5034976;28;20112;-74
2022/03/30 10:58:34;;;;;;;41.55;24.88;;;;;;;18.53;29.99;99078.91;5034551;28;20051;-74
2022/03/30 11:01:22;;;;;;;40.20;22.92;;;;;;;18.60;29.67;99071.66;5033400;28;20033;-74
2022/03/30 11:04:18;;;;;;;40.70;22.10;;;;;;;18.62;29.50;99071.09;5017589;28;20092;-75
2022/03/30 11:07:08;;;;;;;44.22;21.58;;;;;;;18.60;29.60;99071.66;5034418;28;20028;-75
2022/03/30 11:09:35;;;;;;;40.35;22.17;;;;;;;18.66;29.86;99062.84;5016132;28;20120;-75
2022/03/30 11:12:09;;;;;;;43.13;23.42;;;;;;;18.72;30.03;99069.25;5016892;28;20085;-74
2022/03/30 11:15:01;;;;;;;49.35;28.17;;;;;;;18.54;29.06;99057.41;5033857;28;20529;-75
2022/03/30 11:17:31;;;;;;;47.60;23.90;;;;;;;18.41;29.88;99053.78;5034463;28;20017;-75
2022/03/30 11:19:58;;;;;;;46.95;23.30;;;;;;;18.32;30.55;99055.06;5034408;28;20036;-75
2022/03/30 11:22:29;;;;;;;53.70;25.20;;;;;;;18.13;29.82;99051.63;5014219;28;20041;-74
2022/03/30 11:25:23;;;;;;;41.70;22.90;;;;;;;18.10;29.89;99056.41;5014343;28;20038;-75
2022/03/30 11:27:58;;;;;;;39.85;23.15;;;;;;;18.13;29.65;99052.41;5014336;28;20088;-74
2022/03/30 11:30:31;;;;;;;46.70;24.08;;;;;;;18.12;28.81;99047.97;5014297;28;20033;-74
2022/03/30 11:33:19;;;;;;;36.58;20.92;;;;;;;18.06;28.88;99043.66;5014232;28;20041;-74
2022/03/30 11:35:48;;;;;;;37.75;22.95;;;;;;;18.05;28.98;99047.91;5014107;28;20022;-75
2022/03/30 11:38:24;;;;;;;37.05;22.27;;;;;;;17.95;28.88;99041.09;5014331;28;20112;-74
2022/03/30 11:40:56;;;;;;;39.25;22.58;;;;;;;17.89;29.66;99038.34;5013754;28;20022;-74
2022/03/30 11:43:23;;;;;;;36.38;22.08;;;;;;;17.99;30.19;99042.28;5013884;28;20406;-74